Time;durP1;ratioP1;P1;durP2;ratioP2;P2;SDS_P1;SDS_P2;PMS_P1;PMS_P2;Temp;Humidity;BMP_temperature;BMP_pressure;BME280_temperature;BME280_humidity;BME280_pressure;Samples;Min_cycle;Max_cycle;Signal;HPM_P1;HPM_P2
2021/12/09 00:01:46;;;;;;;20.67;14.82;;;2.20;89.90;;;;;;5082409;28;20032;-45
2021/12/09 00:04:14;;;;;;;;;;;2.20;89.90;;;;;;5072240;28;20029;-44
2021/12/09 00:06:43;;;;;;;23.50;14.68;;;2.20;89.90;;;;;;5071759;28;19912;-47
2021/12/09 00:09:18;;;;;;;18.05;14.18;;;2.20;90.00;;;;;;5071528;28;20033;-45
2021/12/09 00:11:47;;;;;;;20.67;14.20;;;2.20;90.10;;;;;;5073578;28;20036;-43
2021/12/09 00:14:29;;;;;;;21.77;13.95;;;2.20;89.90;;;;;;5071376;28;20103;-43
2021/12/09 00:17:00;;;;;;;22.52;16.15;;;2.20;89.80;;;;;;5071557;28;20346;-42
2021/12/09 00:19:29;;;;;;;21.80;15.27;;;2.20;89.90;;;;;;5071224;28;20035;-46
2021/12/09 00:21:58;;;;;;;;;;;2.20;89.80;;;;;;5065759;28;20043;-43
2021/12/09 00:24:26;;;;;;;22.20;15.43;;;2.20;89.90;;;;;;5071437;28;19908;-44
2021/12/09 00:26:53;;;;;;;23.30;14.48;;;2.20;90.00;;;;;;5071528;28;20354;-44
2021/12/09 00:29:21;;;;;;;22.45;15.02;;;2.30;90.00;;;;;;5070634;28;20067;-43
2021/12/09 00:31:48;;;;;;;21.25;15.50;;;2.30;89.90;;;;;;5053721;28;20024;-43
2021/12/09 00:34:14;;;;;;;20.63;15.70;;;2.30;89.90;;;;;;5071269;28;20052;-42
2021/12/09 00:36:54;;;;;;;25.50;15.95;;;2.30;89.90;;;;;;5053950;28;20438;-45
2021/12/09 00:39:24;;;;;;;18.52;15.18;;;2.30;89.80;;;;;;5070983;28;20512;-47
2021/12/09 00:41:54;;;;;;;21.00;15.93;;;2.30;89.80;;;;;;5071223;28;20470;-47
2021/12/09 00:44:21;;;;;;;20.75;15.23;;;2.30;89.80;;;;;;5070655;28;20035;-42
2021/12/09 00:46:51;;;;;;;25.42;15.23;;;2.30;89.80;;;;;;5053676;28;20041;-45
2021/12/09 00:49:18;;;;;;;23.73;15.82;;;2.30;89.80;;;;;;5070912;28;20033;-43
2021/12/09 00:51:45;;;;;;;24.98;17.52;;;2.20;89.70;;;;;;5070601;28;20036;-43
2021/12/09 00:54:12;;;;;;;25.90;15.18;;;2.20;89.80;;;;;;5070877;28;20032;-46
2021/12/09 00:56:37;;;;;;;20.35;15.60;;;2.20;89.80;;;;;;5070551;28;20029;-44
2021/12/09 00:59:04;;;;;;;21.55;15.43;;;2.20;89.90;;;;;;5073893;28;20388;-47
2021/12/09 01:01:31;;;;;;;22.90;15.90;;;2.20;89.70;;;;;;5089027;28;20028;-44
2021/12/09 01:03:57;;;;;;;23.63;15.23;;;2.20;89.80;;;;;;5067784;28;20067;-47
2021/12/09 01:06:24;;;;;;;19.08;15.63;;;2.20;89.80;;;;;;5070479;28;20032;-43
2021/12/09 01:08:54;;;;;;;24.35;15.02;;;2.20;89.90;;;;;;5070508;28;20575;-45
2021/12/09 01:11:21;;;;;;;21.23;16.15;;;2.20;89.80;;;;;;5072452;28;20051;-47
2021/12/09 01:13:47;;;;;;;21.80;15.35;;;2.20;89.80;;;;;;5070221;28;20031;-44
2021/12/09 01:16:18;;;;;;;23.02;16.23;;;2.20;89.90;;;;;;5069458;28;20029;-43
2021/12/09 01:18:45;;;;;;;19.80;14.95;;;2.20;89.80;;;;;;5070182;28;20037;-44
2021/12/09 01:21:12;;;;;;;19.60;15.45;;;2.20;89.60;;;;;;5069517;28;20025;-45
2021/12/09 01:23:41;;;;;;;23.15;15.15;;;2.20;89.70;;;;;;5070284;28;20036;-44
2021/12/09 01:26:09;;;;;;;20.85;14.55;;;2.10;89.70;;;;;;5069391;28;20346;-43
2021/12/09 01:28:52;;;;;;;21.27;14.45;;;2.10;89.50;;;;;;5069816;28;20035;-47
2021/12/09 01:31:32;;;;;;;25.38;15.27;;;2.00;89.60;;;;;;5069796;28;20055;-47
2021/12/09 01:34:02;;;;;;;23.10;15.07;;;2.00;89.80;;;;;;5069589;28;20111;-45
2021/12/09 01:36:31;;;;;;;22.02;15.55;;;2.00;90.00;;;;;;5066316;28;20048;-47
2021/12/09 01:38:59;;;;;;;23.02;15.68;;;2.10;90.10;;;;;;5042024;28;20106;-47
2021/12/09 01:41:26;;;;;;;20.13;14.98;;;2.10;90.00;;;;;;5069714;28;20016;-45
2021/12/09 01:43:54;;;;;;;26.42;16.67;;;2.10;90.10;;;;;;5052173;28;20032;-46
2021/12/09 01:46:21;;;;;;;24.65;17.08;;;2.10;90.30;;;;;;5051962;28;20025;-44
2021/12/09 01:48:50;;;;;;;23.98;16.58;;;2.10;90.30;;;;;;5069091;28;20082;-46
2021/12/09 01:51:19;;;;;;;25.13;16.95;;;2.20;90.30;;;;;;5069447;28;20020;-46
2021/12/09 01:53:46;;;;;;;23.00;16.95;;;2.20;90.30;;;;;;5068906;28;20024;-44
2021/12/09 01:56:21;;;;;;;24.23;17.45;;;2.20;90.30;;;;;;5053455;28;20112;-44
2021/12/09 01:59:00;;;;;;;24.38;16.15;;;2.20;90.30;;;;;;5069212;28;20100;-43
2021/12/09 02:01:26;;;;;;;26.65;18.48;;;2.20;90.20;;;;;;5069458;28;20025;-42
2021/12/09 02:03:53;;;;;;;24.70;17.95;;;2.20;90.20;;;;;;5068855;28;20111;-46
2021/12/09 02:06:23;;;;;;;22.88;18.00;;;2.20;90.20;;;;;;5069405;28;20028;-43
2021/12/09 02:08:51;;;;;;;26.42;18.08;;;2.20;90.40;;;;;;5069599;28;20032;-44
2021/12/09 02:11:18;;;;;;;24.90;18.42;;;2.10;90.40;;;;;;5055789;28;20086;-45
2021/12/09 02:13:45;;;;;;;31.20;20.98;;;2.20;90.30;;;;;;5069372;28;20043;-48
2021/12/09 02:16:13;;;;;;;28.70;18.95;;;2.20;90.40;;;;;;5069666;28;20025;-46
2021/12/09 02:18:40;;;;;;;28.88;18.70;;;2.20;90.40;;;;;;5069565;28;20028;-45
2021/12/09 02:21:13;;;;;;;31.50;19.38;;;2.20;90.50;;;;;;5069365;28;20017;-43
2021/12/09 02:23:43;;;;;;;28.27;18.30;;;2.20;90.40;;;;;;5063319;28;20036;-43
2021/12/09 02:26:10;;;;;;;23.80;17.42;;;2.20;90.40;;;;;;5068952;28;20068;-45
2021/12/09 02:28:38;;;;;;;27.33;18.27;;;2.20;90.50;;;;;;5059935;28;20040;-43
2021/12/09 02:31:05;;;;;;;29.95;18.42;;;2.20;90.60;;;;;;5069115;28;20475;-44
2021/12/09 02:33:32;;;;;;;26.67;18.08;;;2.20;90.60;;;;;;5036320;28;20442;-46
2021/12/09 02:35:59;;;;;;;24.95;18.08;;;2.30;90.60;;;;;;5073376;28;20497;-51
2021/12/09 02:38:26;;;;;;;29.80;17.77;;;2.30;90.60;;;;;;5072832;28;20024;-49
2021/12/09 02:40:56;;;;;;;27.75;18.65;;;2.30;90.60;;;;;;5073183;28;20453;-50
2021/12/09 02:43:29;;;;;;;26.80;18.85;;;2.40;90.60;;;;;;5073012;28;20025;-46
2021/12/09 02:45:57;;;;;;;28.23;19.13;;;2.40;90.50;;;;;;5072605;28;20035;-45
2021/12/09 02:48:24;;;;;;;26.73;18.00;;;2.40;90.50;;;;;;5062009;28;20111;-43
2021/12/09 02:50:52;;;;;;;24.25;17.48;;;2.40;90.60;;;;;;5072290;28;20028;-44
2021/12/09 02:53:21;;;;;;;23.30;16.98;;;2.40;90.60;;;;;;5071280;28;20025;-44
2021/12/09 02:55:48;;;;;;;30.97;18.77;;;2.50;90.60;;;;;;5072473;28;20028;-43
2021/12/09 02:58:15;;;;;;;25.15;18.15;;;2.50;90.60;;;;;;5072260;28;20020;-44
2021/12/09 03:01:17;;;;;;;26.23;17.17;;;2.60;90.60;;;;;;5072401;28;20041;-45
2021/12/09 03:03:54;;;;;;;24.23;18.30;;;2.60;90.60;;;;;;5059532;28;20091;-48
2021/12/09 03:06:38;;;;;;;27.77;19.35;;;2.60;90.60;;;;;;5072923;28;20047;-45
2021/12/09 03:09:09;;;;;;;24.60;18.70;;;2.70;90.50;;;;;;5072769;28;20106;-43
2021/12/09 03:11:36;;;;;;;26.13;17.83;;;2.70;90.50;;;;;;5070641;28;20025;-44
2021/12/09 03:14:04;;;;;;;22.70;17.20;;;2.70;90.30;;;;;;5058157;28;20028;-44
2021/12/09 03:16:33;;;;;;;23.70;17.42;;;2.70;90.30;;;;;;5072528;28;20450;-42
2021/12/09 03:19:04;;;;;;;26.85;18.63;;;2.70;90.20;;;;;;5072938;28;20422;-44
2021/12/09 03:21:38;;;;;;;28.40;17.80;;;2.70;90.20;;;;;;5067916;28;20465;-46
2021/12/09 03:24:08;;;;;;;27.88;17.98;;;2.70;90.10;;;;;;5055035;28;20068;-47
2021/12/09 03:26:37;;;;;;;;;;;2.70;90.00;;;;;;5072796;28;20067;-46
2021/12/09 03:29:08;;;;;;;23.92;16.88;;;2.70;90.10;;;;;;5072247;28;20522;-44
2021/12/09 03:31:40;;;;;;;26.00;16.38;;;2.70;90.00;;;;;;5069302;28;20068;-45
2021/12/09 03:34:07;;;;;;;25.65;18.00;;;2.70;90.10;;;;;;5038462;28;20051;-46
2021/12/09 03:36:41;;;;;;;24.75;16.88;;;2.70;90.10;;;;;;5052465;28;20037;-46
2021/12/09 03:39:16;;;;;;;25.30;17.50;;;2.60;89.90;;;;;;5052448;28;20020;-46
2021/12/09 03:41:46;;;;;;;24.13;17.63;;;2.60;90.00;;;;;;5071779;28;20032;-44
2021/12/09 03:44:13;;;;;;;21.60;17.73;;;2.60;90.00;;;;;;5071689;28;20051;-48
2021/12/09 03:46:41;;;;;;;23.25;16.40;;;2.50;89.90;;;;;;5072247;28;20389;-45
2021/12/09 03:49:07;;;;;;;26.55;16.58;;;2.50;89.90;;;;;;5069816;28;20036;-48
2021/12/09 03:51:35;;;;;;;26.23;18.45;;;2.40;89.90;;;;;;5071340;28;20119;-44
2021/12/09 03:54:05;;;;;;;24.30;18.27;;;2.40;90.00;;;;;;5071798;28;20037;-46
2021/12/09 03:56:33;;;;;;;24.05;16.60;;;2.40;90.10;;;;;;5071746;28;20048;-45
2021/12/09 03:59:02;;;;;;;26.95;18.63;;;2.40;90.10;;;;;;5071836;28;20051;-43
2021/12/09 04:01:32;;;;;;;27.25;17.90;;;2.40;90.20;;;;;;5071461;28;20128;-49
2021/12/09 04:04:00;;;;;;;26.92;18.02;;;2.40;90.10;;;;;;5071585;28;20055;-43
2021/12/09 04:06:29;;;;;;;25.90;19.40;;;2.30;90.20;;;;;;5071589;28;20242;-45
2021/12/09 04:08:58;;;;;;;23.38;15.50;;;2.30;90.10;;;;;;5071951;28;20515;-45
2021/12/09 04:11:25;;;;;;;27.37;19.13;;;2.30;90.20;;;;;;5078016;28;20039;-46
2021/12/09 04:13:54;;;;;;;24.60;18.75;;;2.30;90.30;;;;;;5053969;28;20055;-43
2021/12/09 04:16:21;;;;;;;23.02;16.75;;;2.30;90.20;;;;;;5071295;28;20036;-44
2021/12/09 04:18:48;;;;;;;24.70;16.95;;;2.30;90.20;;;;;;5071613;28;20093;-46
2021/12/09 04:21:15;;;;;;;28.17;17.52;;;2.20;90.30;;;;;;5070983;28;20025;-45
2021/12/09 04:23:42;;;;;;;26.33;17.02;;;2.20;90.30;;;;;;5070702;28;20037;-44
2021/12/09 04:26:09;;;;;;;28.92;20.27;;;2.20;90.30;;;;;;5051469;28;20035;-46
2021/12/09 04:28:37;;;;;;;26.25;18.30;;;2.20;90.30;;;;;;5067480;28;20468;-45
2021/12/09 04:31:06;;;;;;;23.88;16.90;;;2.20;90.30;;;;;;5032826;28;20065;-45
2021/12/09 04:33:34;;;;;;;23.00;17.13;;;2.20;90.20;;;;;;5031426;28;20037;-45
2021/12/09 04:36:02;;;;;;;23.92;17.60;;;2.20;90.30;;;;;;5031235;28;20467;-47
2021/12/09 04:38:30;;;;;;;30.13;17.55;;;2.20;90.30;;;;;;5029607;28;20117;-44
2021/12/09 04:40:57;;;;;;;23.98;17.33;;;2.20;90.30;;;;;;5031246;28;20017;-46
2021/12/09 04:43:24;;;;;;;26.30;18.80;;;2.10;90.30;;;;;;5030786;28;20065;-44
2021/12/09 04:45:51;;;;;;;24.48;16.10;;;2.20;90.40;;;;;;5043683;28;20033;-46
2021/12/09 04:48:18;;;;;;;24.45;18.83;;;2.20;90.30;;;;;;5030689;28;20026;-44
2021/12/09 04:50:46;;;;;;;25.80;19.30;;;2.20;90.20;;;;;;5029779;28;20474;-45
2021/12/09 04:53:13;;;;;;;27.00;17.75;;;2.20;90.30;;;;;;5029579;28;20316;-44
2021/12/09 04:55:41;;;;;;;26.65;18.17;;;2.00;90.10;;;;;;5030276;28;20029;-46
2021/12/09 04:58:07;;;;;;;23.35;16.17;;;2.00;90.20;;;;;;5027173;28;20029;-46
2021/12/09 05:00:38;;;;;;;24.05;17.13;;;2.00;90.10;;;;;;5029834;28;20422;-46
2021/12/09 05:03:09;;;;;;;23.70;17.00;;;1.90;90.10;;;;;;5030265;28;20086;-47
2021/12/09 05:05:59;;;;;;;24.55;16.33;;;1.90;90.10;;;;;;5030550;28;20033;-47
2021/12/09 05:08:28;;;;;;;25.15;17.85;;;1.90;90.20;;;;;;5027003;28;20129;-47
2021/12/09 05:13:58;;;;;;;27.92;19.05;;;1.90;90.20;;;;;;4988785;28;20505;-48
2021/12/09 05:16:24;;;;;;;24.63;17.88;;;1.90;90.20;;;;;;5009932;28;20031;-47
2021/12/09 05:18:58;;;;;;;22.52;17.17;;;1.90;90.10;;;;;;5028746;28;20040;-45
2021/12/09 05:21:37;;;;;;;23.33;16.95;;;1.80;90.20;;;;;;5030387;28;20044;-48
2021/12/09 05:24:09;;;;;;;22.17;17.30;;;1.80;90.40;;;;;;5010913;28;20048;-45
2021/12/09 05:26:59;;;;;;;32.00;20.50;;;1.80;90.40;;;;;;5029144;28;20488;-48
2021/12/09 05:29:30;;;;;;;30.23;19.20;;;1.80;90.40;;;;;;5037243;28;20075;-45
2021/12/09 05:32:11;;;;;;;26.80;18.58;;;1.80;90.40;;;;;;5070201;28;20041;-48
2021/12/09 05:34:55;;;;;;;26.48;20.15;;;1.80;90.50;;;;;;5069628;28;20086;-44
2021/12/09 05:37:26;;;;;;;26.20;19.98;;;1.80;90.70;;;;;;5070113;28;20033;-46
2021/12/09 05:39:54;;;;;;;28.75;20.08;;;1.80;90.70;;;;;;5069780;28;20107;-45
2021/12/09 05:42:25;;;;;;;29.05;20.77;;;1.80;90.60;;;;;;5069789;28;20098;-45
2021/12/09 05:44:53;;;;;;;30.35;20.30;;;1.80;90.70;;;;;;5070037;28;20028;-50
2021/12/09 05:47:22;;;;;;;29.35;21.20;;;1.80;90.80;;;;;;5069631;28;20031;-48
2021/12/09 05:49:49;;;;;;;30.42;21.48;;;1.90;90.80;;;;;;5069208;28;20028;-46
2021/12/09 05:52:16;;;;;;;28.40;20.70;;;1.80;90.80;;;;;;5069914;28;20036;-48
2021/12/09 05:54:44;;;;;;;31.00;20.85;;;1.80;90.70;;;;;;5068201;28;20039;-47
2021/12/09 05:57:11;;;;;;;32.35;22.23;;;1.80;90.70;;;;;;5069916;28;20025;-47
2021/12/09 05:59:41;;;;;;;32.05;23.70;;;1.70;90.70;;;;;;5069614;28;20067;-48
2021/12/09 06:02:13;;;;;;;36.22;25.50;;;1.70;90.80;;;;;;5069474;28;20032;-46
2021/12/09 06:04:44;;;;;;;32.20;22.38;;;1.70;90.80;;;;;;5069191;28;20349;-46
2021/12/09 06:07:10;;;;;;;33.20;24.05;;;1.70;90.90;;;;;;5069232;28;20470;-50
2021/12/09 06:09:40;;;;;;;40.65;25.50;;;1.70;90.80;;;;;;5055118;28;20049;-45
2021/12/09 06:12:08;;;;;;;33.40;23.00;;;1.80;90.90;;;;;;5051174;28;20547;-47
2021/12/09 06:14:35;;;;;;;30.52;23.35;;;1.80;90.80;;;;;;5068564;28;20024;-46
2021/12/09 06:17:02;;;;;;;29.63;22.30;;;1.70;90.80;;;;;;5069409;28;20433;-49
2021/12/09 06:19:29;;;;;;;31.75;22.40;;;1.70;90.80;;;;;;5066918;28;20033;-49
2021/12/09 06:21:58;;;;;;;30.60;20.85;;;1.70;90.80;;;;;;5051785;28;20127;-45
2021/12/09 06:24:25;;;;;;;25.25;20.02;;;1.70;90.70;;;;;;5067453;28;20089;-46
2021/12/09 06:26:52;;;;;;;29.35;20.58;;;1.70;90.70;;;;;;5067551;28;20036;-48
2021/12/09 06:29:18;;;;;;;31.50;20.83;;;1.70;90.80;;;;;;5068383;28;20048;-45
2021/12/09 06:31:45;;;;;;;31.58;21.98;;;1.60;90.70;;;;;;5051166;28;20030;-47
2021/12/09 06:34:12;;;;;;;32.90;22.10;;;1.70;90.80;;;;;;5033106;28;20029;-44
2021/12/09 06:36:40;;;;;;;27.80;18.80;;;1.60;90.80;;;;;;5068501;28;20024;-45
2021/12/09 06:39:08;;;;;;;28.67;21.33;;;1.70;90.90;;;;;;5068717;28;20024;-45
2021/12/09 06:41:36;;;;;;;31.58;22.17;;;1.70;90.90;;;;;;5052138;28;20120;-47
2021/12/09 06:44:05;;;;;;;31.23;21.75;;;1.70;90.90;;;;;;5052477;28;20032;-46
2021/12/09 06:46:33;;;;;;;28.10;20.75;;;1.70;90.80;;;;;;5069298;28;20040;-47
2021/12/09 06:48:59;;;;;;;29.27;21.77;;;1.70;90.90;;;;;;5069043;28;20222;-46
2021/12/09 06:51:26;;;;;;;31.63;21.73;;;1.70;91.00;;;;;;5068848;28;20032;-45
2021/12/09 06:53:56;;;;;;;31.13;21.02;;;1.60;90.90;;;;;;5052511;28;20085;-47
2021/12/09 06:56:27;;;;;;;32.53;20.52;;;1.60;90.90;;;;;;5068973;28;20357;-49
2021/12/09 06:58:54;;;;;;;27.85;20.85;;;1.50;90.70;;;;;;5068943;28;20012;-47
2021/12/09 07:01:21;;;;;;;28.65;21.38;;;1.50;90.70;;;;;;5069428;28;20060;-45
2021/12/09 07:03:48;;;;;;;33.95;19.83;;;1.50;90.60;;;;;;5068937;28;20086;-44
2021/12/09 07:06:16;;;;;;;31.02;21.00;;;1.40;90.40;;;;;;5069479;28;20335;-47
2021/12/09 07:08:47;;;;;;;30.17;20.55;;;1.40;90.40;;;;;;5056673;28;20036;-44
2021/12/09 07:11:17;;;;;;;31.55;19.60;;;1.30;90.60;;;;;;5068086;28;20355;-43
2021/12/09 07:13:46;;;;;;;30.08;20.33;;;1.30;90.70;;;;;;5068460;28;20044;-44
2021/12/09 07:16:14;;;;;;;28.00;19.73;;;1.30;90.80;;;;;;5068776;28;20468;-44
2021/12/09 07:18:40;;;;;;;28.15;20.38;;;1.30;90.70;;;;;;5068798;28;20049;-45
2021/12/09 07:21:07;;;;;;;31.67;21.67;;;1.30;90.70;;;;;;5071227;28;20046;-46
2021/12/09 07:23:35;;;;;;;27.92;21.10;;;1.40;90.70;;;;;;5071528;28;20031;-43
2021/12/09 07:26:03;;;;;;;31.52;21.83;;;1.30;90.70;;;;;;5055491;28;20171;-45
2021/12/09 07:28:30;;;;;;;32.38;23.70;;;1.30;90.70;;;;;;5072094;28;20056;-45
2021/12/09 07:30:58;;;;;;;31.38;21.98;;;1.40;90.80;;;;;;5066953;28;20061;-43
2021/12/09 07:33:25;;;;;;;31.80;22.48;;;1.40;90.70;;;;;;5053823;28;20031;-47
2021/12/09 07:35:51;;;;;;;33.08;22.02;;;1.40;90.80;;;;;;5068568;28;20036;-44
2021/12/09 07:38:18;;;;;;;33.78;25.45;;;1.40;90.90;;;;;;5065518;28;20032;-42
2021/12/09 07:40:45;;;;;;;37.88;23.88;;;1.40;91.00;;;;;;5071757;28;20435;-44
2021/12/09 07:43:11;;;;;;;36.20;23.17;;;1.40;91.00;;;;;;5071286;28;20111;-45
2021/12/09 07:45:38;;;;;;;34.63;23.40;;;1.40;91.00;;;;;;5042965;28;20115;-48
2021/12/09 07:48:05;;;;;;;43.13;25.13;;;1.40;91.00;;;;;;5071702;28;20045;-43
2021/12/09 07:50:33;;;;;;;35.72;24.83;;;1.40;91.10;;;;;;5071613;28;20063;-47
2021/12/09 07:53:01;;;;;;;32.53;23.77;;;1.40;91.00;;;;;;5071792;28;20020;-45
2021/12/09 07:55:28;;;;;;;41.25;24.30;;;1.40;91.00;;;;;;5068405;28;20032;-45
2021/12/09 07:57:55;;;;;;;41.63;24.55;;;1.40;91.10;;;;;;5071427;28;20438;-47
2021/12/09 08:00:30;;;;;;;34.90;24.38;;;1.40;91.10;;;;;;5071509;28;20052;-42
2021/12/09 08:03:01;;;;;;;38.55;25.10;;;1.40;91.10;;;;;;5068851;28;20024;-47
2021/12/09 08:05:31;;;;;;;35.20;23.92;;;1.40;91.00;;;;;;5068164;28;20048;-44
2021/12/09 08:07:57;;;;;;;37.53;25.65;;;1.40;91.00;;;;;;5070637;28;20107;-42
2021/12/09 08:10:24;;;;;;;37.00;23.40;;;1.40;90.90;;;;;;5070055;28;20039;-45
2021/12/09 08:12:52;;;;;;;39.25;26.95;;;1.40;90.90;;;;;;5070290;28;20060;-42
2021/12/09 08:15:18;;;;;;;42.25;26.92;;;1.40;90.80;;;;;;5070957;28;20035;-42
2021/12/09 08:17:58;;;;;;;47.13;27.95;;;1.40;90.90;;;;;;5060133;28;20028;-44
2021/12/09 08:20:26;;;;;;;45.78;28.40;;;1.40;91.10;;;;;;5071017;28;20643;-44
2021/12/09 08:22:53;;;;;;;49.13;29.92;;;1.40;91.20;;;;;;5062825;28;20039;-47
2021/12/09 08:25:21;;;;;;;47.60;29.60;;;1.40;91.30;;;;;;5052971;28;20670;-46
2021/12/09 08:27:49;;;;;;;47.97;30.92;;;1.40;91.40;;;;;;5069841;28;20039;-49
2021/12/09 08:30:21;;;;;;;48.55;29.63;;;1.40;91.40;;;;;;5070052;28;20049;-48
2021/12/09 08:32:48;;;;;;;47.03;31.20;;;1.40;91.50;;;;;;5058117;28;20419;-51
2021/12/09 08:35:15;;;;;;;50.05;31.02;;;1.40;91.60;;;;;;5064811;28;20031;-51
2021/12/09 08:37:45;;;;;;;54.90;31.30;;;1.50;91.70;;;;;;5068765;28;20090;-48
2021/12/09 08:40:14;;;;;;;51.35;29.05;;;1.50;91.60;;;;;;5070578;28;20444;-48
2021/12/09 08:42:44;;;;;;;;;;;1.50;91.50;;;;;;5059733;28;20040;-50
2021/12/09 08:45:12;;;;;;;46.58;28.52;;;1.50;91.70;;;;;;5070184;28;20473;-52
2021/12/09 08:47:40;;;;;;;46.28;28.45;;;1.60;91.70;;;;;;5069536;28;20086;-54
2021/12/09 08:50:09;;;;;;;45.40;29.27;;;1.60;91.70;;;;;;5069861;28;20090;-51
2021/12/09 08:52:35;;;;;;;44.35;28.90;;;1.70;91.70;;;;;;5065477;28;20116;-50
2021/12/09 08:55:03;;;;;;;45.78;30.17;;;1.70;91.50;;;;;;5068902;28;20123;-48
2021/12/09 08:57:32;;;;;;;56.58;27.70;;;1.70;91.50;;;;;;5050190;28;20021;-50
2021/12/09 09:00:03;;;;;;;44.75;25.67;;;1.70;91.40;;;;;;5065605;28;20112;-48
2021/12/09 09:02:29;;;;;;;46.75;28.00;;;1.70;91.40;;;;;;5069804;28;20118;-53
2021/12/09 09:04:57;;;;;;;54.78;29.27;;;1.60;91.40;;;;;;5069494;28;20037;-53
2021/12/09 09:07:27;;;;;;;52.28;29.20;;;1.70;91.40;;;;;;5069546;28;20039;-48
2021/12/09 09:09:53;;;;;;;45.63;29.95;;;1.70;91.40;;;;;;5055471;28;20341;-51
2021/12/09 09:12:19;;;;;;;46.97;29.27;;;1.70;91.40;;;;;;5069808;28;20040;-51
2021/12/09 09:14:50;;;;;;;44.75;28.95;;;1.70;91.30;;;;;;5069082;28;20469;-52
2021/12/09 09:17:17;;;;;;;43.63;30.05;;;1.80;91.40;;;;;;5069953;28;20114;-48
2021/12/09 09:19:44;;;;;;;41.63;28.20;;;1.80;91.40;;;;;;5067950;28;20120;-50
2021/12/09 09:22:13;;;;;;;47.40;29.38;;;1.70;91.40;;;;;;5069610;28;20063;-52
2021/12/09 09:24:43;;;;;;;42.43;28.67;;;1.70;91.50;;;;;;5068795;28;20040;-51
2021/12/09 09:27:10;;;;;;;50.75;30.17;;;1.80;91.50;;;;;;5069501;28;20033;-50
2021/12/09 09:29:39;;;;;;;49.65;30.25;;;1.80;91.40;;;;;;5068645;28;20079;-49
2021/12/09 09:32:07;;;;;;;49.33;29.10;;;1.90;91.50;;;;;;5069396;28;20303;-53
2021/12/09 09:34:33;;;;;;;53.78;30.65;;;1.80;91.30;;;;;;5068952;28;20044;-52
2021/12/09 09:37:00;;;;;;;47.13;28.85;;;1.80;91.40;;;;;;5051456;28;20025;-51
2021/12/09 09:39:30;;;;;;;42.97;28.48;;;1.90;91.50;;;;;;5069102;28;20036;-47
2021/12/09 09:42:18;;;;;;;48.45;29.50;;;1.90;91.50;;;;;;5071462;28;20603;-50
2021/12/09 09:45:00;;;;;;;43.40;28.23;;;1.90;91.30;;;;;;5062425;28;20048;-48
2021/12/09 09:47:28;;;;;;;50.13;28.58;;;1.90;91.40;;;;;;5068445;28;20028;-48
2021/12/09 09:49:59;;;;;;;44.67;28.40;;;1.90;91.40;;;;;;5065956;28;20413;-49
2021/12/09 09:52:26;;;;;;;49.40;29.17;;;2.00;91.40;;;;;;5068077;28;20035;-53
2021/12/09 09:54:55;;;;;;;49.80;29.35;;;1.90;91.30;;;;;;5063355;28;20032;-47
2021/12/09 09:57:23;;;;;;;41.93;29.87;;;2.00;91.40;;;;;;5056449;28;20067;-47
2021/12/09 09:59:50;;;;;;;49.58;28.73;;;2.10;91.40;;;;;;5066397;28;20271;-45
2021/12/09 10:02:17;;;;;;;41.88;27.33;;;2.10;91.40;;;;;;5068061;28;20036;-47
2021/12/09 10:04:48;;;;;;;41.55;28.65;;;2.00;91.10;;;;;;5060856;28;20040;-45
2021/12/09 10:07:21;;;;;;;40.72;27.15;;;2.10;91.20;;;;;;5068324;28;20032;-44
2021/12/09 10:09:48;;;;;;;39.42;27.40;;;2.10;91.20;;;;;;5066791;28;20357;-46
2021/12/09 10:12:16;;;;;;;44.33;27.17;;;2.10;91.20;;;;;;5068217;28;20397;-46
2021/12/09 10:14:47;;;;;;;37.28;26.85;;;2.20;91.30;;;;;;5063224;28;20032;-49
2021/12/09 10:17:21;;;;;;;43.47;27.98;;;2.20;91.10;;;;;;5050993;28;20028;-46
2021/12/09 10:19:52;;;;;;;39.38;26.13;;;2.10;90.80;;;;;;5068455;28;20133;-47
2021/12/09 10:22:25;;;;;;;42.88;26.00;;;2.20;90.90;;;;;;5068244;28;20020;-47
2021/12/09 10:24:54;;;;;;;39.35;25.77;;;2.20;91.00;;;;;;5069095;28;20036;-47
2021/12/09 10:27:31;;;;;;;47.58;28.48;;;2.20;91.10;;;;;;5068827;28;20450;-45
2021/12/09 10:30:20;;;;;;;48.58;27.60;;;2.20;91.10;;;;;;5058772;28;20645;-47
2021/12/09 10:32:49;;;;;;;43.55;28.00;;;2.30;91.00;;;;;;5048629;28;20057;-45
2021/12/09 10:35:20;;;;;;;40.17;26.05;;;2.30;91.10;;;;;;5048624;28;20033;-44
2021/12/09 10:37:53;;;;;;;41.88;27.35;;;2.30;90.80;;;;;;5045676;28;20065;-44
2021/12/09 10:40:26;;;;;;;42.25;28.05;;;2.30;91.00;;;;;;5046916;28;20044;-49
2021/12/09 10:43:02;;;;;;;43.85;28.38;;;2.40;91.20;;;;;;5047661;28;20017;-46
2021/12/09 10:45:35;;;;;;;43.00;27.35;;;2.40;91.00;;;;;;5034336;28;20107;-44
2021/12/09 10:56:10;;;;;;;40.13;26.90;;;2.30;90.90;;;;;;5050656;28;20036;-49
2021/12/09 10:58:43;;;;;;;44.63;27.05;;;2.30;91.10;;;;;;5045733;28;20016;-46
2021/12/09 11:01:15;;;;;;;46.53;30.13;;;2.30;91.00;;;;;;5052282;28;20029;-49
2021/12/09 11:03:50;;;;;;;48.53;27.63;;;2.40;91.10;;;;;;5034063;28;20138;-46
2021/12/09 11:06:21;;;;;;;49.30;31.15;;;2.40;91.00;;;;;;5051860;28;20466;-46
2021/12/09 11:08:56;;;;;;;44.15;28.02;;;2.40;90.90;;;;;;5051334;28;20028;-47
2021/12/09 11:11:34;;;;;;;46.03;29.00;;;2.40;90.90;;;;;;5051627;28;20028;-45
2021/12/09 11:14:20;;;;;;;47.50;30.25;;;2.40;90.90;;;;;;5048903;28;20462;-46
2021/12/09 11:16:50;;;;;;;50.78;29.23;;;2.40;91.00;;;;;;5050744;28;20104;-46
2021/12/09 11:22:19;;;;;;;52.30;30.83;;;2.50;91.10;;;;;;5051389;28;20466;-44
2021/12/09 11:24:55;;;;;;;48.10;29.15;;;2.50;91.10;;;;;;5050322;28;20044;-45
2021/12/09 11:27:24;;;;;;;49.35;30.70;;;2.50;91.00;;;;;;5051677;28;20044;-48
2021/12/09 11:30:06;;;;;;;55.08;34.38;;;2.50;90.90;;;;;;5057939;28;20481;-48
2021/12/09 11:35:17;;;;;;;49.50;32.10;;;2.50;90.90;;;;;;5054139;28;20033;-44
2021/12/09 11:37:53;;;;;;;48.00;29.25;;;2.60;91.20;;;;;;5070618;28;20027;-44
2021/12/09 11:40:45;;;;;;;51.38;29.67;;;2.60;91.10;;;;;;5054184;28;20016;-49
2021/12/09 11:43:19;;;;;;;52.95;33.60;;;2.70;91.00;;;;;;5061673;28;20048;-46
2021/12/09 11:45:49;;;;;;;49.78;32.67;;;2.70;91.10;;;;;;5071549;28;20056;-48
2021/12/09 11:48:17;;;;;;;50.40;30.92;;;2.80;91.10;;;;;;5071150;28;20028;-43
2021/12/09 11:50:52;;;;;;;61.30;31.23;;;2.90;91.00;;;;;;5071145;28;20052;-43
2021/12/09 11:53:24;;;;;;;54.53;31.15;;;2.90;91.00;;;;;;5069907;28;20075;-47
2021/12/09 11:56:04;;;;;;;48.35;30.05;;;2.90;90.70;;;;;;5040686;28;20431;-45
2021/12/09 11:58:38;;;;;;;43.22;27.33;;;2.90;90.60;;;;;;5070530;28;20057;-45
2021/12/09 12:11:16;;;;;;;40.53;25.98;;;3.10;90.40;;;;;;4988661;28;19906;-48
2021/12/09 12:13:53;;;;;;;43.40;27.45;;;3.20;90.30;;;;;;4996482;28;20125;-43
2021/12/09 12:23:05;;;;;;;43.53;26.02;;;3.20;89.70;;;;;;5069814;28;20165;-49
2021/12/09 12:37:44;;;;;;;41.10;25.92;;;2.80;90.00;;;;;;5069908;28;20476;-43
2021/12/09 12:40:14;;;;;;;48.22;29.83;;;2.80;90.10;;;;;;5068984;28;20074;-48
2021/12/09 12:43:04;;;;;;;43.33;27.67;;;2.80;90.20;;;;;;5058328;28;20240;-46
2021/12/09 12:46:03;;;;;;;46.17;28.85;;;2.80;90.30;;;;;;5069990;28;20103;-42
2021/12/09 12:49:05;;;;;;;42.28;28.08;;;2.90;90.50;;;;;;5065318;28;20048;-45
2021/12/09 12:51:47;;;;;;;51.70;27.45;;;2.80;90.40;;;;;;5069971;28;20052;-46
2021/12/09 12:57:25;;;;;;;42.45;27.73;;;2.90;90.40;;;;;;5070580;28;20054;-45
2021/12/09 13:00:25;;;;;;;44.35;26.77;;;2.90;90.30;;;;;;5044957;28;20032;-44
2021/12/09 13:03:16;;;;;;;44.08;26.83;;;2.90;90.30;;;;;;5055462;28;20479;-43
2021/12/09 13:09:11;;;;;;;47.33;26.98;;;2.90;90.40;;;;;;5065713;28;20028;-45
2021/12/09 13:12:03;;;;;;;46.63;30.08;;;2.90;90.60;;;;;;5068924;28;20078;-47
2021/12/09 13:14:34;;;;;;;48.55;30.05;;;2.90;90.40;;;;;;5069212;28;20029;-45
2021/12/09 13:17:14;;;;;;;43.72;29.55;;;2.90;90.50;;;;;;5069030;28;20393;-43
2021/12/09 13:20:07;;;;;;;45.85;27.85;;;2.90;90.70;;;;;;5069470;28;20090;-46
2021/12/09 13:22:38;;;;;;;46.13;27.20;;;2.90;90.70;;;;;;5058237;28;20033;-45
2021/12/09 13:25:30;;;;;;;46.22;29.10;;;2.90;90.50;;;;;;5069028;28;20477;-44
2021/12/09 13:46:32;;;;;;;52.75;34.25;;;2.80;90.90;;;;;;5065687;28;20081;-45
2021/12/09 13:54:23;;;;;;;51.75;31.33;;;2.90;91.00;;;;;;5064391;28;20782;-42
2021/12/09 13:57:11;;;;;;;47.25;30.13;;;2.90;91.00;;;;;;5069189;28;20028;-43
2021/12/09 13:59:38;;;;;;;42.38;29.92;;;2.90;90.80;;;;;;5051478;28;20032;-45
2021/12/09 14:02:20;;;;;;;43.92;29.15;;;2.90;90.80;;;;;;5069122;28;20036;-43
2021/12/09 14:04:47;;;;;;;46.58;29.13;;;3.00;90.80;;;;;;5067881;28;20405;-48
2021/12/09 14:07:24;;;;;;;45.08;29.85;;;3.00;90.70;;;;;;5068448;28;20027;-47
2021/12/09 14:10:12;;;;;;;49.38;29.80;;;3.00;90.70;;;;;;5068442;28;20413;-45
2021/12/09 14:12:49;;;;;;;46.95;30.20;;;3.00;90.60;;;;;;5068316;28;20028;-44